Time;durP1;ratioP1;P1;durP2;ratioP2;P2;SDS_P1;SDS_P2;PMS_P1;PMS_P2;Temp;Humidity;BMP_temperature;BMP_pressure;BME280_temperature;BME280_humidity;BME280_pressure;Samples;Min_cycle;Max_cycle;Signal;HPM_P1;HPM_P2
2023/09/27 00:00:33;;;;;;;13.25;3.42;;;;;;;13.17;100.00;93177.19;5020193;28;20044;-82
2023/09/27 00:02:58;;;;;;;8.52;3.03;;;;;;;13.14;100.00;93181.19;5008037;28;20048;-83
2023/09/27 00:05:25;;;;;;;13.40;3.33;;;;;;;13.11;100.00;93179.13;5000604;28;20033;-83
2023/09/27 00:07:51;;;;;;;8.88;3.40;;;;;;;13.08;100.00;93175.22;5016042;28;20493;-83
2023/09/27 00:10:17;;;;;;;10.88;3.88;;;;;;;13.08;100.00;93180.47;5013317;28;20038;-84
2023/09/27 00:12:45;;;;;;;6.53;3.15;;;;;;;13.10;100.00;93183.59;5002888;28;20124;-85
2023/09/27 00:15:12;;;;;;;8.55;3.35;;;;;;;13.10;100.00;93174.91;5022745;28;20556;-84
2023/09/27 00:17:40;;;;;;;8.00;4.03;;;;;;;13.10;100.00;93169.66;5016805;28;20041;-85
2023/09/27 00:20:11;;;;;;;7.53;3.17;;;;;;;13.08;100.00;93164.72;5020365;28;20041;-84
2023/09/27 00:22:37;;;;;;;9.47;3.60;;;;;;;13.05;100.00;93159.22;5025648;28;20046;-84
2023/09/27 00:25:08;;;;;;;10.32;3.50;;;;;;;13.05;100.00;93165.25;5034360;28;20030;-84
2023/09/27 00:27:35;;;;;;;6.40;3.33;;;;;;;13.07;100.00;93160.50;5014896;28;20034;-84
2023/09/27 00:30:01;;;;;;;10.32;2.95;;;;;;;13.04;100.00;93155.06;5018498;28;20068;-83
2023/09/27 00:32:26;;;;;;;7.43;3.20;;;;;;;13.02;100.00;93152.69;5000348;28;20042;-84
2023/09/27 00:34:52;;;;;;;6.35;3.00;;;;;;;13.02;100.00;93152.69;5015510;28;20417;-84
2023/09/27 00:37:17;;;;;;;8.18;3.53;;;;;;;13.01;100.00;93152.97;4994212;28;20128;-83
2023/09/27 00:39:43;;;;;;;7.70;3.40;;;;;;;12.98;100.00;93151.69;5010221;28;20048;-84
2023/09/27 00:42:09;;;;;;;9.07;3.10;;;;;;;13.00;100.00;93165.34;4997425;28;20033;-83
2023/09/27 00:44:37;;;;;;;8.82;3.50;;;;;;;13.00;100.00;93156.69;5016510;28;20274;-83
2023/09/27 00:47:05;;;;;;;7.82;3.20;;;;;;;13.01;100.00;93153.75;5026473;28;20508;-82
2023/09/27 00:49:31;;;;;;;7.28;3.03;;;;;;;12.99;100.00;93139.34;5035708;28;20026;-82
2023/09/27 00:51:58;;;;;;;7.45;2.78;;;;;;;13.00;100.00;93149.56;5022014;28;20456;-82
2023/09/27 00:54:25;;;;;;;8.65;3.47;;;;;;;13.05;100.00;93151.34;5006735;28;20071;-84
2023/09/27 00:56:51;;;;;;;6.50;3.08;;;;;;;13.07;100.00;93155.25;5023400;28;20089;-84
2023/09/27 00:59:18;;;;;;;7.72;3.30;;;;;;;13.08;100.00;93154.19;5025965;28;20091;-82
2023/09/27 01:01:46;;;;;;;8.50;3.50;;;;;;;13.09;100.00;93154.97;5011635;28;20128;-83
2023/09/27 01:04:14;;;;;;;10.77;3.70;;;;;;;13.06;100.00;93151.06;5020965;28;20531;-83
2023/09/27 01:06:41;;;;;;;7.97;3.30;;;;;;;13.07;100.00;93147.34;5004118;28;20152;-84
2023/09/27 01:09:07;;;;;;;7.35;3.15;;;;;;;13.03;100.00;93146.38;5022963;28;20084;-84
2023/09/27 01:11:33;;;;;;;7.18;3.30;;;;;;;13.04;100.00;93147.16;5026945;28;20042;-86
2023/09/27 01:13:59;;;;;;;7.00;3.15;;;;;;;13.09;100.00;93155.75;5009570;28;20030;-86
2023/09/27 01:16:25;;;;;;;6.88;3.17;;;;;;;13.11;100.00;93152.84;5030648;28;20067;-80
2023/09/27 01:18:51;;;;;;;9.77;3.65;;;;;;;13.12;100.00;93142.03;5044261;28;20047;-80
2023/09/27 01:21:19;;;;;;;8.50;3.80;;;;;;;13.10;100.00;93149.44;5037945;28;20047;-78
2023/09/27 01:23:49;;;;;;;6.68;3.40;;;;;;;13.10;100.00;93140.75;5048009;28;20018;-80
2023/09/27 01:26:16;;;;;;;10.02;3.55;;;;;;;13.11;100.00;93132.59;5039354;28;20041;-79
2023/09/27 01:28:46;;;;;;;8.80;3.25;;;;;;;13.11;100.00;93131.81;5038718;28;20057;-81
2023/09/27 01:31:12;;;;;;;7.80;3.53;;;;;;;13.11;100.00;93140.47;5032626;28;20041;-78
2023/09/27 01:33:37;;;;;;;10.15;3.92;;;;;;;13.10;100.00;93141.56;5038905;28;20075;-81
2023/09/27 01:36:03;;;;;;;8.85;3.40;;;;;;;13.12;100.00;93138.63;5036929;28;20038;-82
2023/09/27 01:38:30;;;;;;;7.15;3.42;;;;;;;13.12;100.00;93142.03;5021089;28;20056;-81
2023/09/27 01:40:55;;;;;;;7.55;3.28;;;;;;;13.06;100.00;93135.31;5032229;28;20041;-81
2023/09/27 01:43:21;;;;;;;8.65;3.80;;;;;;;13.05;100.00;93138.19;5038572;28;20128;-85
2023/09/27 01:45:46;;;;;;;10.52;3.42;;;;;;;13.06;100.00;93148.44;5021643;28;20042;-80
2023/09/27 01:48:12;;;;;;;8.43;3.63;;;;;;;13.00;100.00;93141.69;5041860;28;20053;-82
2023/09/27 01:50:38;;;;;;;9.98;3.60;;;;;;;13.00;100.00;93146.94;5019614;28;20038;-80
2023/09/27 01:53:03;;;;;;;8.88;3.78;;;;;;;12.98;100.00;93149.06;5043189;28;20013;-80
2023/09/27 01:55:29;;;;;;;8.82;3.90;;;;;;;12.97;100.00;93142.25;5042734;28;20024;-82
2023/09/27 01:57:55;;;;;;;7.32;3.30;;;;;;;12.96;100.00;93143.31;5033046;28;20038;-80
2023/09/27 02:00:21;;;;;;;7.95;3.35;;;;;;;13.02;100.00;93149.28;5018972;28;20030;-85
2023/09/27 02:02:55;;;;;;;7.25;3.67;;;;;;;13.03;100.00;93150.84;5028297;28;20041;-85
2023/09/27 02:05:21;;;;;;;6.72;3.10;;;;;;;13.04;100.00;93149.78;5019314;28;20034;-84
2023/09/27 02:07:47;;;;;;;6.47;3.00;;;;;;;13.03;100.00;93146.38;5021275;28;20046;-84
2023/09/27 02:10:13;;;;;;;7.88;3.30;;;;;;;13.03;100.00;93150.84;5010525;28;20031;-85
2023/09/27 02:12:40;;;;;;;7.13;3.28;;;;;;;12.99;100.00;93142.75;5023082;28;20034;-84
2023/09/27 02:15:10;;;;;;;9.57;3.33;;;;;;;12.99;100.00;93144.59;5010122;28;20069;-85
2023/09/27 02:17:37;;;;;;;10.75;3.45;;;;;;;12.94;100.00;93136.78;5002862;28;20133;-84
2023/09/27 02:20:07;;;;;;;16.02;3.60;;;;;;;13.00;100.00;93149.56;5018845;28;20076;-85
2023/09/27 02:22:34;;;;;;;6.35;2.90;;;;;;;12.96;100.00;93143.31;5014711;28;20061;-84
2023/09/27 02:24:59;;;;;;;8.75;3.75;;;;;;;12.96;100.00;93145.94;5018441;28;20042;-82
2023/09/27 02:27:25;;;;;;;7.63;3.00;;;;;;;12.95;100.00;93140.97;5024823;28;20413;-85
2023/09/27 02:29:51;;;;;;;9.48;3.50;;;;;;;12.94;100.00;93140.19;5008913;28;20666;-84
2023/09/27 02:32:17;;;;;;;6.25;3.05;;;;;;;12.90;100.00;93136.56;5020966;28;20080;-85
2023/09/27 02:34:43;;;;;;;7.20;3.03;;;;;;;12.87;100.00;93129.25;5018650;28;20033;-83
2023/09/27 02:37:09;;;;;;;7.90;3.53;;;;;;;12.91;100.00;93140.75;5023272;28;20033;-82
2023/09/27 02:39:35;;;;;;;5.40;3.17;;;;;;;12.90;100.00;93144.44;5021462;28;20064;-81
2023/09/27 02:42:01;;;;;;;7.55;3.28;;;;;;;12.90;100.00;93133.94;5021013;28;20037;-83
2023/09/27 02:44:26;;;;;;;9.57;3.50;;;;;;;12.87;100.00;93127.41;5014786;28;20046;-83
2023/09/27 02:46:55;;;;;;;8.02;3.00;;;;;;;12.88;100.00;93128.19;5017887;28;20064;-84
2023/09/27 02:49:20;;;;;;;8.65;3.53;;;;;;;12.90;100.00;93131.31;5021884;28;20056;-83
2023/09/27 02:51:48;;;;;;;7.03;2.95;;;;;;;12.92;100.00;93131.81;5029333;28;20045;-84
2023/09/27 02:54:14;;;;;;;11.73;3.35;;;;;;;12.87;100.00;93122.16;5023438;28;20045;-84
2023/09/27 02:56:42;;;;;;;6.80;3.15;;;;;;;12.93;100.00;93127.34;5027643;28;20037;-83
2023/09/27 02:59:07;;;;;;;10.00;3.92;;;;;;;12.94;100.00;93137.56;5021095;28;20049;-83
2023/09/27 03:01:33;;;;;;;6.15;3.05;;;;;;;12.90;100.00;93131.31;5013877;28;20055;-81
2023/09/27 03:03:59;;;;;;;8.60;3.50;;;;;;;12.91;100.00;93135.50;5016321;28;20104;-83
2023/09/27 03:06:25;;;;;;;7.22;3.38;;;;;;;12.88;100.00;93136.09;5024329;28;20040;-83
2023/09/27 03:08:50;;;;;;;7.72;3.33;;;;;;;12.86;100.00;93130.34;5020105;28;20125;-83
2023/09/27 03:11:17;;;;;;;10.93;3.33;;;;;;;12.85;100.00;93131.38;5015057;28;20042;-83
2023/09/27 03:13:44;;;;;;;8.50;3.13;;;;;;;12.86;100.00;93135.59;5013815;28;20052;-81
2023/09/27 03:16:10;;;;;;;6.82;3.35;;;;;;;12.84;100.00;93133.22;4996319;28;20498;-82
2023/09/27 03:18:35;;;;;;;8.38;3.55;;;;;;;12.79;100.00;93119.38;5008557;28;20173;-83
2023/09/27 03:21:01;;;;;;;6.60;3.20;;;;;;;12.81;100.00;93119.88;4998791;28;20046;-83
2023/09/27 03:23:27;;;;;;;6.63;3.38;;;;;;;12.82;100.00;93126.69;5016415;28;20026;-83
2023/09/27 03:25:56;;;;;;;8.85;3.47;;;;;;;12.83;100.00;93125.63;5014372;28;20042;-84
2023/09/27 03:28:22;;;;;;;9.45;3.50;;;;;;;12.82;100.00;93121.44;5006901;28;20084;-83
2023/09/27 03:30:49;;;;;;;8.20;3.63;;;;;;;12.82;100.00;93116.97;4976736;28;20039;-83
2023/09/27 03:33:15;;;;;;;10.52;3.40;;;;;;;12.82;100.00;93126.69;5003319;28;20678;-83
2023/09/27 03:35:41;;;;;;;8.85;3.22;;;;;;;12.82;100.00;93129.34;5005031;28;20430;-83
2023/09/27 03:38:07;;;;;;;6.18;3.00;;;;;;;12.81;100.00;93125.13;4997447;28;20042;-82
2023/09/27 03:40:33;;;;;;;8.45;3.60;;;;;;;12.77;100.00;93114.41;5003830;28;20042;-84
2023/09/27 03:42:59;;;;;;;6.55;3.25;;;;;;;12.82;100.00;93124.06;4990460;28;20038;-83
2023/09/27 03:45:27;;;;;;;5.80;3.20;;;;;;;12.80;100.00;93121.72;4989102;28;20259;-83
2023/09/27 03:47:53;;;;;;;7.35;3.30;;;;;;;12.80;100.00;93118.31;4986876;28;20052;-80
2023/09/27 03:50:20;;;;;;;9.20;3.53;;;;;;;12.77;100.00;93116.28;5000557;28;20105;-81
2023/09/27 03:52:46;;;;;;;7.18;3.50;;;;;;;12.78;100.00;93115.97;5007404;28;20062;-82
2023/09/27 03:55:12;;;;;;;8.48;3.35;;;;;;;12.76;100.00;93114.69;4999209;28;20497;-82
2023/09/27 03:57:40;;;;;;;8.40;3.38;;;;;;;12.77;100.00;93116.28;4983833;28;20058;-83
2023/09/27 04:00:07;;;;;;;7.90;3.08;;;;;;;12.79;100.00;93114.91;4998168;28;20092;-83
2023/09/27 04:02:38;;;;;;;7.72;3.05;;;;;;;12.79;100.00;93114.91;4999789;28;20043;-81
2023/09/27 04:05:05;;;;;;;7.53;3.35;;;;;;;12.80;100.00;93115.69;5002363;28;21483;-82
2023/09/27 04:07:30;;;;;;;7.82;3.22;;;;;;;12.75;100.00;93107.88;5001116;28;20056;-83
2023/09/27 04:09:57;;;;;;;10.73;3.95;;;;;;;12.70;100.00;93104.25;4986540;28;20042;-84
2023/09/27 04:12:22;;;;;;;7.22;3.42;;;;;;;12.76;100.00;93107.59;4992252;28;20041;-82
2023/09/27 04:14:48;;;;;;;7.80;3.63;;;;;;;12.78;100.00;93112.56;5002703;28;20031;-84
2023/09/27 04:17:14;;;;;;;6.68;3.42;;;;;;;12.77;100.00;93121.53;4998449;28;20053;-84
2023/09/27 04:19:40;;;;;;;7.38;3.45;;;;;;;12.76;100.00;93119.94;4996780;28;20044;-83
2023/09/27 04:22:06;;;;;;;9.18;3.33;;;;;;;12.71;100.00;93124.19;5003245;28;20026;-82
2023/09/27 04:24:32;;;;;;;6.93;3.17;;;;;;;12.75;100.00;93128.91;4994001;28;20093;-83
2023/09/27 04:26:59;;;;;;;8.55;3.25;;;;;;;12.69;100.00;93118.44;4991829;28;20134;-84
2023/09/27 04:29:24;;;;;;;10.82;3.30;;;;;;;12.71;100.00;93124.19;4991472;28;20043;-84
2023/09/27 04:31:52;;;;;;;8.20;3.47;;;;;;;12.67;100.00;93112.69;4996996;28;20050;-79
2023/09/27 04:34:18;;;;;;;10.18;3.33;;;;;;;12.68;100.00;93124.78;5000441;28;20068;-83
2023/09/27 04:36:44;;;;;;;9.07;3.17;;;;;;;12.67;100.00;93120.56;4999545;28;20019;-84
2023/09/27 04:39:15;;;;;;;7.10;3.53;;;;;;;12.65;100.00;93119.28;4988282;28;20494;-83
2023/09/27 04:41:44;;;;;;;7.05;3.13;;;;;;;12.64;100.00;93121.16;4974209;28;20100;-77
2023/09/27 04:44:09;;;;;;;10.80;3.67;;;;;;;12.65;100.00;93116.66;4997577;28;20098;-84
2023/09/27 04:46:35;;;;;;;8.10;3.78;;;;;;;12.56;100.00;93111.25;4993113;28;20054;-81
2023/09/27 04:49:02;;;;;;;8.60;3.33;;;;;;;12.64;100.00;93128.25;4984166;28;20113;-77
2023/09/27 04:51:29;;;;;;;11.57;4.15;;;;;;;12.60;100.00;93127.25;4981761;28;20026;-82
2023/09/27 04:54:00;;;;;;;9.02;3.13;;;;;;;12.59;100.00;93136.97;4986778;28;20134;-83
2023/09/27 04:56:26;;;;;;;8.45;3.22;;;;;;;12.59;100.00;93136.22;5003608;28;20030;-83
2023/09/27 04:58:52;;;;;;;8.15;3.67;;;;;;;12.60;100.00;93146.41;4972387;28;20078;-84
2023/09/27 05:01:18;;;;;;;7.80;3.47;;;;;;;12.60;100.00;93138.53;4989525;28;20034;-83
2023/09/27 05:03:43;;;;;;;7.55;3.20;;;;;;;12.59;100.00;93138.84;4976620;28;20026;-83
2023/09/27 05:06:09;;;;;;;6.88;3.40;;;;;;;12.62;100.00;93140.88;4975833;28;20718;-84
2023/09/27 05:08:35;;;;;;;8.65;3.72;;;;;;;12.61;100.00;93150.63;4996190;28;20037;-85
2023/09/27 05:11:01;;;;;;;9.75;3.40;;;;;;;12.60;100.00;93143.00;5004580;28;20030;-82
2023/09/27 05:13:26;;;;;;;12.25;4.15;;;;;;;12.54;100.00;93144.94;4997275;28;20061;-82
2023/09/27 05:15:52;;;;;;;7.93;3.40;;;;;;;12.54;100.00;93144.94;4965451;28;20492;-81
2023/09/27 05:18:19;;;;;;;10.18;3.90;;;;;;;12.52;100.00;93144.44;4997804;28;20022;-81
2023/09/27 05:20:45;;;;;;;6.78;3.30;;;;;;;12.45;100.00;93136.09;4996554;28;20046;-85
2023/09/27 05:23:11;;;;;;;12.88;3.60;;;;;;;12.45;100.00;93143.97;4983904;28;20031;-84
2023/09/27 05:25:37;;;;;;;6.93;3.45;;;;;;;12.47;100.00;93144.47;4982400;28;20038;-81
2023/09/27 05:28:03;;;;;;;12.48;3.65;;;;;;;12.47;100.00;93144.47;4947317;28;1292048;-86
2023/09/27 05:30:28;;;;;;;10.00;3.90;;;;;;;12.44;100.00;93142.41;5005717;28;20513;-81
2023/09/27 05:32:54;;;;;;;12.20;4.30;;;;;;;12.66;100.00;93150.53;4995506;28;20046;-76
2023/09/27 05:35:20;;;;;;;8.60;3.88;;;;;;;12.94;100.00;93148.06;5000333;28;20506;-84
2023/09/27 05:37:46;;;;;;;10.25;3.45;;;;;;;12.95;100.00;93152.28;5003037;28;20034;-84
2023/09/27 05:40:12;;;;;;;11.38;3.70;;;;;;;12.99;100.00;93150.66;4960965;28;20041;-84
2023/09/27 05:42:39;;;;;;;11.10;3.72;;;;;;;13.07;100.00;93150.00;4990693;28;20038;-82
2023/09/27 05:45:05;;;;;;;9.55;3.58;;;;;;;13.49;100.00;93161.50;4999910;28;20526;-83
2023/09/27 05:47:32;;;;;;;11.60;3.70;;;;;;;13.74;100.00;93155.03;5000653;28;20035;-84
2023/09/27 05:49:57;;;;;;;16.20;3.80;;;;;;;14.49;100.00;93162.91;5005890;28;20335;-85
2023/09/27 05:52:23;;;;;;;8.75;3.70;;;;;;;15.18;100.00;93155.72;5012371;28;20057;-84
2023/09/27 05:54:51;;;;;;;11.45;3.83;;;;;;;15.81;100.00;93164.56;5010928;28;20061;-84
2023/09/27 05:57:16;;;;;;;7.20;3.40;;;;;;;16.35;100.00;93161.88;5003245;28;20041;-84
2023/09/27 05:59:44;;;;;;;8.57;3.80;;;;;;;16.95;100.00;93170.31;4998772;28;20035;-83
2023/09/27 06:02:16;;;;;;;7.55;3.88;;;;;;;17.23;100.00;93171.59;4999319;28;20486;-84
2023/09/27 06:04:45;;;;;;;6.72;3.50;;;;;;;17.80;100.00;93170.63;5000197;28;20121;-84
2023/09/27 06:07:13;;;;;;;7.47;3.42;;;;;;;18.33;100.00;93175.84;4991457;28;20045;-85
2023/09/27 06:09:42;;;;;;;8.63;3.42;;;;;;;18.88;100.00;93164.41;5001324;28;20062;-85
2023/09/27 06:12:10;;;;;;;8.50;3.72;;;;;;;19.50;100.00;93173.50;4994819;28;20030;-85
2023/09/27 06:14:36;;;;;;;7.57;3.67;;;;;;;19.97;100.00;93175.91;5002555;28;20038;-85
2023/09/27 06:17:03;;;;;;;11.93;3.35;;;;;;;20.18;100.00;93176.66;5006389;28;20122;-85
2023/09/27 06:19:30;;;;;;;8.30;3.25;;;;;;;20.86;100.00;93186.06;4995204;28;20034;-85
2023/09/27 06:21:57;;;;;;;11.40;3.50;;;;;;;21.19;100.00;93179.84;4999697;28;20449;-85
2023/09/27 06:24:26;;;;;;;6.00;3.20;;;;;;;21.50;100.00;93175.78;5009847;28;20320;-85
2023/09/27 06:26:53;;;;;;;7.63;3.40;;;;;;;22.01;100.00;93181.38;5006687;28;20049;-84
2023/09/27 06:29:19;;;;;;;11.55;3.63;;;;;;;22.31;100.00;93184.47;5000586;28;20104;-85
2023/09/27 06:31:47;;;;;;;7.20;3.45;;;;;;;22.75;100.00;93186.31;5005974;28;20034;-85
2023/09/27 06:34:16;;;;;;;7.68;3.50;;;;;;;23.21;96.93;93186.63;5005573;28;20042;-84
2023/09/27 06:36:42;;;;;;;8.57;3.55;;;;;;;23.39;97.97;93187.00;5003396;28;20046;-86
2023/09/27 06:39:13;;;;;;;10.02;3.60;;;;;;;23.35;95.38;93178.13;4991347;28;20482;-86
2023/09/27 06:41:42;;;;;;;6.50;3.35;;;;;;;23.61;94.74;93177.53;5002858;28;20038;-86
2023/09/27 06:44:08;;;;;;;7.10;3.25;;;;;;;24.21;90.01;93183.31;5002669;28;20101;-86
2023/09/27 06:46:35;;;;;;;10.27;3.28;;;;;;;24.77;86.40;93187.34;5003558;28;20453;-85
2023/09/27 06:49:04;;;;;;;19.38;3.70;;;;;;;25.48;81.84;93190.31;4998244;28;20439;-85
2023/09/27 06:51:31;;;;;;;10.95;3.38;;;;;;;26.09;76.77;93179.59;5002927;28;20030;-85
2023/09/27 06:53:57;;;;;;;7.30;3.35;;;;;;;26.15;76.64;93180.81;5004956;28;20038;-85
2023/09/27 06:56:22;;;;;;;5.20;2.80;;;;;;;25.93;69.29;93191.31;5000888;28;20560;-86
2023/09/27 06:58:51;;;;;;;10.32;3.15;;;;;;;25.89;72.25;93193.16;4983006;28;20031;-86
2023/09/27 07:01:19;;;;;;;9.35;3.30;;;;;;;26.02;72.17;93193.69;5003861;28;20476;-86
2023/09/27 07:03:45;;;;;;;11.90;3.58;;;;;;;26.60;69.89;93192.41;5004909;28;20046;-85
2023/09/27 07:06:10;;;;;;;9.50;3.35;;;;;;;26.68;69.25;93187.88;5000549;28;20034;-85
2023/09/27 07:08:36;;;;;;;6.47;3.40;;;;;;;27.12;67.97;93198.59;4980681;28;20046;-85
2023/09/27 07:11:07;;;;;;;9.27;3.20;;;;;;;26.63;67.23;93197.03;4987332;28;20066;-85
2023/09/27 07:13:33;;;;;;;7.55;3.10;;;;;;;27.08;68.08;93203.16;5000581;28;20085;-85
2023/09/27 07:15:59;;;;;;;8.70;3.15;;;;;;;25.99;69.28;93205.19;5006503;28;20112;-86
2023/09/27 07:18:28;;;;;;;7.60;2.95;;;;;;;25.26;76.05;93205.31;5008386;28;20042;-84
2023/09/27 07:20:54;;;;;;;12.50;3.33;;;;;;;24.90;79.71;93206.66;4998592;28;20092;-85
2023/09/27 07:23:20;;;;;;;8.38;3.03;;;;;;;24.29;78.78;93202.94;5008259;28;20390;-85
2023/09/27 07:25:47;;;;;;;8.45;3.30;;;;;;;23.98;82.30;93206.53;5008071;28;20044;-85
2023/09/27 07:28:13;;;;;;;8.40;3.88;;;;;;;23.41;83.45;93206.13;4997560;28;20046;-85
2023/09/27 07:30:39;;;;;;;11.80;3.38;;;;;;;22.51;92.06;93209.34;5005728;28;20034;-85
2023/09/27 07:33:10;;;;;;;9.77;3.63;;;;;;;22.29;93.69;93208.06;5005400;28;20157;-85
2023/09/27 07:35:41;;;;;;;12.87;3.50;;;;;;;22.21;96.02;93199.06;4995977;28;20077;-85
2023/09/27 07:38:13;;;;;;;8.35;3.53;;;;;;;22.02;94.04;93204.25;4987157;28;20311;-84
2023/09/27 07:40:39;;;;;;;;;;;;;;;22.43;92.38;93203.06;4997126;28;20118;-84
2023/09/27 07:43:05;;;;;;;8.05;3.10;;;;;;;22.46;90.59;93201.59;5006878;28;20008;-84
2023/09/27 07:45:34;;;;;;;8.38;3.22;;;;;;;22.19;92.94;93197.84;5002309;28;20039;-85
2023/09/27 07:48:00;;;;;;;10.52;3.40;;;;;;;22.12;91.69;93197.66;4987445;28;20038;-84
2023/09/27 07:50:27;;;;;;;11.45;3.67;;;;;;;22.47;95.33;93197.81;5004129;28;20521;-84
2023/09/27 07:53:09;;;;;;;10.15;3.20;;;;;;;22.69;90.69;93203.69;5004805;28;20030;-84
2023/09/27 07:55:43;;;;;;;9.10;3.63;;;;;;;22.31;91.54;93200.47;5002306;28;20025;-84
2023/09/27 07:58:12;;;;;;;8.55;3.60;;;;;;;22.57;91.50;93207.22;4996382;28;20042;-84
2023/09/27 08:00:41;;;;;;;9.32;3.75;;;;;;;22.92;80.42;93204.66;4996092;28;20119;-85
2023/09/27 08:03:10;;;;;;;9.27;3.40;;;;;;;23.25;83.60;93201.59;4994809;28;20054;-84
2023/09/27 08:05:45;;;;;;;6.40;3.25;;;;;;;22.96;78.72;93200.13;5004513;28;20026;-85
2023/09/27 08:08:12;;;;;;;9.93;3.70;;;;;;;23.22;74.91;93196.19;4991834;28;20042;-85
2023/09/27 08:10:43;;;;;;;8.95;3.90;;;;;;;23.24;82.74;93196.63;4998403;28;20109;-85
2023/09/27 08:13:10;;;;;;;9.37;4.13;;;;;;;22.54;88.29;93198.00;4994490;28;20043;-85
2023/09/27 08:15:36;;;;;;;7.07;3.78;;;;;;;21.94;91.07;93191.84;5002840;28;20031;-85
2023/09/27 08:18:02;;;;;;;13.02;4.07;;;;;;;21.99;91.13;93199.59;5009274;28;20043;-85
2023/09/27 08:20:28;;;;;;;9.80;3.25;;;;;;;22.36;91.81;93199.44;5003674;28;20049;-85
2023/09/27 08:22:54;;;;;;;10.55;4.38;;;;;;;22.33;79.36;93202.78;5006581;28;20047;-85
2023/09/27 08:25:19;;;;;;;10.45;3.88;;;;;;;22.04;88.28;93194.00;5006430;28;20430;-85
2023/09/27 08:27:50;;;;;;;10.05;3.80;;;;;;;21.71;94.13;93195.03;4980949;28;20048;-85
2023/09/27 08:30:16;;;;;;;16.15;4.38;;;;;;;21.98;88.74;93201.50;5006522;28;20045;-85
2023/09/27 08:32:42;;;;;;;15.63;4.63;;;;;;;21.92;89.40;93191.41;4999616;28;20042;-85
2023/09/27 08:35:09;;;;;;;8.35;4.07;;;;;;;21.67;90.79;93193.41;5009772;28;20033;-85
2023/09/27 08:37:34;;;;;;;7.78;4.30;;;;;;;21.72;90.11;93195.81;5003543;28;20566;-83
2023/09/27 08:40:00;;;;;;;12.15;4.78;;;;;;;21.17;84.26;93198.03;4997145;28;20143;-83
2023/09/27 08:42:27;;;;;;;12.48;4.57;;;;;;;21.38;83.19;93188.00;4999567;28;20042;-84
2023/09/27 08:44:53;;;;;;;10.18;4.45;;;;;;;21.35;79.90;93193.22;4989847;28;20039;-84
2023/09/27 08:47:19;;;;;;;11.55;5.15;;;;;;;21.27;79.98;93192.22;5005986;28;20395;-84
2023/09/27 08:49:49;;;;;;;11.98;4.30;;;;;;;21.30;81.87;93196.91;5007253;28;20038;-84
2023/09/27 08:52:16;;;;;;;10.93;4.10;;;;;;;21.18;91.58;93194.25;5009876;28;20030;-84
2023/09/27 08:54:41;;;;;;;11.32;4.00;;;;;;;21.11;90.40;93188.72;5000353;28;20030;-84
2023/09/27 08:57:08;;;;;;;12.07;5.13;;;;;;;21.13;87.13;93192.59;5009353;28;20471;-84
2023/09/27 08:59:35;;;;;;;8.80;3.80;;;;;;;21.30;88.78;93196.09;5008004;28;20044;-84
2023/09/27 09:02:04;;;;;;;11.65;4.47;;;;;;;21.26;87.36;93190.69;4999468;28;20046;-84
2023/09/27 09:04:32;;;;;;;9.23;4.82;;;;;;;20.98;83.91;93196.72;5003344;28;20030;-85
2023/09/27 09:06:59;;;;;;;12.73;5.13;;;;;;;21.16;81.97;93202.56;5000090;28;20106;-85
2023/09/27 09:09:26;;;;;;;10.70;4.70;;;;;;;21.26;79.15;93201.34;5003475;28;20409;-85
2023/09/27 09:11:54;;;;;;;8.50;4.50;;;;;;;21.20;81.69;93198.13;5005674;28;20106;-85
2023/09/27 09:14:37;;;;;;;13.50;4.93;;;;;;;21.40;88.10;93193.78;5002345;28;20047;-85
2023/09/27 09:17:03;;;;;;;12.30;4.70;;;;;;;21.40;86.01;93193.78;4998150;28;20246;-85
2023/09/27 09:19:31;;;;;;;10.13;4.00;;;;;;;21.77;85.93;93199.03;5005300;28;20110;-83
2023/09/27 09:22:08;;;;;;;9.25;4.05;;;;;;;21.76;85.64;93194.81;4999163;28;20054;-84
2023/09/27 09:24:41;;;;;;;9.63;4.15;;;;;;;21.70;85.07;93198.03;5002700;28;20053;-84
2023/09/27 09:27:14;;;;;;;8.82;4.10;;;;;;;21.99;85.54;93192.38;5008959;28;20029;-83
2023/09/27 09:29:47;;;;;;;9.95;4.28;;;;;;;22.07;84.38;93200.59;5007415;28;20058;-84
2023/09/27 09:32:19;;;;;;;16.35;4.93;;;;;;;22.11;86.58;93202.22;4998525;28;20129;-84
2023/09/27 09:34:50;;;;;;;11.02;5.60;;;;;;;22.47;83.92;93202.38;5006419;28;20085;-83
2023/09/27 09:37:16;;;;;;;10.32;4.88;;;;;;;22.23;78.52;93196.84;5006202;28;20030;-85
2023/09/27 09:39:42;;;;;;;15.23;4.95;;;;;;;22.57;76.66;93191.97;4997639;28;20026;-83
2023/09/27 09:42:08;;;;;;;13.05;4.80;;;;;;;22.90;83.85;93198.06;5004799;28;20482;-85
2023/09/27 09:44:34;;;;;;;10.05;3.97;;;;;;;22.76;82.16;93199.28;5006142;28;20521;-84
2023/09/27 09:47:12;;;;;;;12.27;3.97;;;;;;;22.98;83.71;93195.22;5006497;28;20346;-84
2023/09/27 09:49:38;;;;;;;7.57;4.45;;;;;;;22.70;80.81;93198.03;5006626;28;20062;-84
2023/09/27 09:52:05;;;;;;;16.40;5.35;;;;;;;22.14;83.80;93198.09;5002144;28;20040;-85
2023/09/27 09:54:46;;;;;;;11.93;3.92;;;;;;;22.12;87.29;93190.44;5003284;28;20027;-85
2023/09/27 09:57:13;;;;;;;11.20;4.45;;;;;;;22.13;84.76;93185.88;5006584;28;20566;-84
2023/09/27 10:00:25;;;;;;;8.73;3.97;;;;;;;22.10;87.43;93183.91;5006318;28;20027;-83
2023/09/27 10:02:59;;;;;;;10.93;3.92;;;;;;;22.33;85.28;93187.56;5003036;28;20061;-85
2023/09/27 10:05:28;;;;;;;10.32;3.85;;;;;;;22.24;86.60;93185.06;5006435;28;20045;-85
2023/09/27 10:07:54;;;;;;;11.13;4.45;;;;;;;22.17;82.78;93182.19;5005895;28;20093;-85
2023/09/27 10:10:21;;;;;;;12.43;4.97;;;;;;;21.68;82.28;93179.72;5002773;28;20131;-84
2023/09/27 10:12:50;;;;;;;11.98;4.10;;;;;;;21.90;84.62;93175.75;5008769;28;20038;-84
2023/09/27 10:15:18;;;;;;;8.32;4.00;;;;;;;22.00;84.17;93169.94;5004461;28;20030;-83
2023/09/27 10:17:45;;;;;;;8.70;4.50;;;;;;;21.64;83.11;93178.88;5006394;28;20129;-82
2023/09/27 10:20:17;;;;;;;13.70;4.38;;;;;;;21.50;83.57;93181.88;5005718;28;20053;-84
2023/09/27 10:22:45;;;;;;;12.45;4.45;;;;;;;21.41;84.94;93186.56;5005682;28;20274;-84
2023/09/27 10:25:23;;;;;;;16.95;4.32;;;;;;;21.52;86.50;93177.00;4994009;28;20026;-81
2023/09/27 10:28:15;;;;;;;9.88;4.72;;;;;;;21.73;78.57;93181.38;4999062;28;20114;-82
2023/09/27 10:30:40;;;;;;;15.30;5.00;;;;;;;21.71;80.05;93179.06;5009088;28;20509;-82
2023/09/27 10:33:15;;;;;;;9.77;4.28;;;;;;;21.98;79.19;93177.50;5007748;28;20022;-82
2023/09/27 10:35:46;;;;;;;13.20;4.55;;;;;;;22.12;78.79;93176.34;5009653;28;20088;-82
2023/09/27 10:38:12;;;;;;;9.70;4.47;;;;;;;22.33;77.61;93170.78;4997924;28;20112;-81
2023/09/27 10:40:47;;;;;;;10.70;4.60;;;;;;;22.01;80.78;93165.38;5012719;28;20030;-80
2023/09/27 10:43:46;;;;;;;9.82;4.70;;;;;;;21.94;78.47;93171.31;4993878;28;20101;-81
2023/09/27 10:46:11;;;;;;;8.45;4.05;;;;;;;21.77;75.63;93169.72;4953270;28;20034;-81
2023/09/27 10:48:39;;;;;;;12.88;5.30;;;;;;;21.54;75.38;93158.78;5008400;28;20037;-81
2023/09/27 10:51:04;;;;;;;13.13;5.00;;;;;;;21.85;77.53;93157.34;4999935;28;20132;-82
2023/09/27 10:53:32;;;;;;;12.43;5.20;;;;;;;21.69;74.69;93159.97;5001330;28;20108;-78
2023/09/27 10:55:58;;;;;;;12.45;4.32;;;;;;;21.80;75.66;93154.94;5001354;28;20490;-80
2023/09/27 10:58:24;;;;;;;17.58;4.35;;;;;;;21.82;73.67;93158.81;5008587;28;20085;-82
2023/09/27 11:00:51;;;;;;;13.52;5.15;;;;;;;22.00;70.95;93158.53;4984696;28;20093;-82
2023/09/27 11:03:18;;;;;;;9.50;4.60;;;;;;;21.80;70.80;93155.72;5006922;28;20042;-81
2023/09/27 11:05:43;;;;;;;8.60;4.95;;;;;;;21.97;71.57;93159.94;5008911;28;20030;-80
2023/09/27 11:08:09;;;;;;;13.48;4.97;;;;;;;21.86;74.23;93148.22;5001843;28;20394;-81
2023/09/27 11:10:35;;;;;;;19.98;5.07;;;;;;;21.80;75.48;93150.38;5011027;28;20034;-79
2023/09/27 11:13:12;;;;;;;17.00;5.45;;;;;;;21.77;73.23;93145.75;5011448;28;20026;-80
2023/09/27 11:15:41;;;;;;;10.68;5.07;;;;;;;21.98;73.67;93142.09;5012063;28;20038;-81
2023/09/27 11:18:08;;;;;;;11.38;4.50;;;;;;;22.10;72.56;93147.34;5011359;28;20042;-80
2023/09/27 11:20:34;;;;;;;10.55;5.57;;;;;;;22.13;76.59;93135.97;5011097;28;20037;-80
2023/09/27 11:23:04;;;;;;;13.48;5.10;;;;;;;22.15;74.52;93131.09;5011583;28;20049;-79
2023/09/27 11:25:31;;;;;;;12.02;5.15;;;;;;;22.15;73.38;93132.97;5010116;28;20026;-80
2023/09/27 11:27:58;;;;;;;9.10;4.15;;;;;;;22.27;70.87;93137.50;5011804;28;20049;-80